Time;durP1;ratioP1;P1;durP2;ratioP2;P2;SDS_P1;SDS_P2;PMS_P1;PMS_P2;Temp;Humidity;BMP_temperature;BMP_pressure;BME280_temperature;BME280_humidity;BME280_pressure;Samples;Min_cycle;Max_cycle;Signal;HPM_P1;HPM_P2
2023/08/22 20:08:08;;;;;;;;;7.60;7.40;;;;;28.39;43.07;101192.63;6164658;22;46345;-84
2023/08/22 20:10:34;;;;;;;;;8.25;7.00;;;;;28.52;43.32;101217.44;6246871;22;45533;-83
2023/08/22 20:12:59;;;;;;;;;7.80;7.80;;;;;28.48;43.41;101229.75;6243921;22;46163;-82
2023/08/22 20:15:25;;;;;;;;;6.50;6.50;;;;;28.43;43.97;101227.59;6243017;22;45349;-84
2023/08/22 20:17:52;;;;;;;;;5.75;5.75;;;;;28.32;43.95;101221.72;6244654;22;45347;-84
2023/08/22 20:20:18;;;;;;;;;4.60;4.60;;;;;28.25;44.33;101218.84;6244129;22;45243;-86
2023/08/22 20:22:43;;;;;;;;;10.50;9.50;;;;;28.23;45.28;101239.22;6243003;22;56394;-82
2023/08/22 20:25:08;;;;;;;;;10.50;7.25;;;;;28.01;45.70;101233.63;6244386;22;45420;-86
2023/08/22 20:27:34;;;;;;;;;5.00;5.00;;;;;27.92;45.68;101234.72;6215645;22;45259;-83
2023/08/22 20:29:59;;;;;;;;;6.75;6.75;;;;;27.91;46.00;101243.97;6244334;22;45483;-82
2023/08/22 20:32:24;;;;;;;;;4.75;4.75;;;;;27.91;46.25;101254.91;6243988;22;54825;-84
2023/08/22 20:34:50;;;;;;;;;5.00;5.00;;;;;27.75;46.42;101241.34;6244164;22;45204;-83
2023/08/22 20:37:16;;;;;;;;;4.00;4.00;;;;;27.55;46.65;101217.19;6246663;22;45305;-86
2023/08/22 20:39:41;;;;;;;;;5.20;4.00;;;;;27.52;46.24;101217.56;6220326;22;45196;-82
2023/08/22 20:42:07;;;;;;;;;6.25;6.25;;;;;27.58;47.05;101233.22;6219061;22;47386;-81
2023/08/22 20:44:32;;;;;;;;;2.25;2.25;;;;;27.57;46.71;101230.69;6248201;22;45366;-83
2023/08/22 20:46:57;;;;;;;;;5.50;4.50;;;;;27.55;47.24;101240.94;6221110;22;45873;-82
2023/08/22 20:49:24;;;;;;;;;5.00;5.00;;;;;27.40;47.71;101235.41;6248312;22;45558;-83
2023/08/22 20:51:50;;;;;;;;;6.50;6.50;;;;;27.42;47.05;101246.16;6248961;22;46154;-84
2023/08/22 20:54:15;;;;;;;;;6.00;6.00;;;;;27.29;47.20;101230.34;6246988;22;45273;-82
2023/08/22 20:56:40;;;;;;;;;6.25;5.25;;;;;27.32;47.84;101249.09;6247808;22;45307;-84
2023/08/22 20:59:06;;;;;;;;;4.50;4.50;;;;;27.21;47.93;101241.31;6246244;22;45582;-82
2023/08/22 21:01:33;;;;;;;;;5.25;4.00;;;;;27.24;47.41;101262.81;6244951;22;45474;-83
2023/08/22 21:03:58;;;;;;;;;4.20;2.80;;;;;27.22;47.99;101263.00;6225468;22;45371;-85
2023/08/22 21:06:23;;;;;;;;;4.75;3.75;;;;;27.19;47.97;101260.59;6249610;22;45467;-85
2023/08/22 21:08:49;;;;;;;;;8.00;4.00;;;;;27.02;47.99;101240.72;6228025;22;45349;-86
2023/08/22 21:11:14;;;;;;;;;5.75;5.75;;;;;27.07;48.21;101255.72;6220844;22;46155;-81
2023/08/22 21:13:40;;;;;;;;;5.50;5.25;;;;;27.03;48.51;101260.69;6194262;22;45133;-84
2023/08/22 21:16:05;;;;;;;;;3.00;2.75;;;;;26.78;48.37;101220.81;6223902;22;45660;-82
2023/08/22 21:18:30;;;;;;;;;4.50;3.25;;;;;26.86;48.53;101243.50;6196796;22;45223;-82
2023/08/22 21:20:56;;;;;;;;;3.00;3.00;;;;;26.86;48.55;101248.94;6195219;22;46745;-83
2023/08/22 21:23:22;;;;;;;;;4.50;4.50;;;;;26.83;48.87;101251.19;6219920;22;45192;-82
2023/08/22 21:25:48;;;;;;;;;6.00;4.50;;;;;26.72;48.41;101246.97;6219203;22;45087;-82
2023/08/22 21:28:13;;;;;;;;;4.25;3.00;;;;;26.71;48.71;101262.47;6217445;22;45181;-83
2023/08/22 21:30:40;;;;;;;;;2.50;2.50;;;;;26.65;49.20;101267.75;6216990;22;45549;-83
2023/08/22 21:33:05;;;;;;;;;4.00;4.00;;;;;26.63;49.38;101269.81;6216000;22;45443;-84
2023/08/22 21:35:31;;;;;;;;;5.00;3.00;;;;;26.59;49.05;101271.22;6217605;22;45333;-82
2023/08/22 21:37:57;;;;;;;;;3.00;3.00;;;;;26.55;48.98;101272.56;6189134;22;45634;-81
2023/08/22 21:40:23;;;;;;;;;6.00;2.75;;;;;26.42;49.04;101268.47;6215629;22;45323;-82
2023/08/22 21:42:48;;;;;;;;;3.60;2.60;;;;;26.41;49.50;101266.78;6217031;22;45409;-83
2023/08/22 21:45:14;;;;;;;;;2.00;2.00;;;;;26.35;49.48;101262.00;6217274;22;45246;-82
2023/08/22 21:47:40;;;;;;;;;3.00;3.00;;;;;26.37;49.49;101270.03;6216866;22;45268;-83
2023/08/22 21:50:07;;;;;;;;;4.50;3.75;;;;;26.18;49.99;101249.41;6215252;22;45312;-83
2023/08/22 21:52:34;;;;;;;;;4.00;3.80;;;;;26.19;50.11;101274.81;6217461;22;45294;-83
2023/08/22 21:54:59;;;;;;;;;2.00;2.00;;;;;26.10;50.04;101272.06;6215514;22;45478;-82
2023/08/22 21:57:25;;;;;;;;;3.00;3.00;;;;;26.14;50.08;101286.19;6214071;22;45513;-82
2023/08/22 21:59:50;;;;;;;;;5.25;5.25;;;;;26.10;50.23;101284.84;6213110;22;45466;-82
2023/08/22 22:02:15;;;;;;;;;3.75;3.75;;;;;26.14;50.30;101297.97;6212437;22;45442;-82
2023/08/22 22:04:41;;;;;;;;;4.00;4.00;;;;;26.09;50.10;101297.63;6213632;22;45691;-82
2023/08/22 22:07:06;;;;;;;;;2.75;2.75;;;;;26.05;50.45;101304.44;6214708;22;45322;-82
2023/08/22 22:09:31;;;;;;;;;4.75;4.75;;;;;26.03;50.69;101309.19;6243263;22;61636;-84
2023/08/22 22:11:57;;;;;;;;;2.50;2.50;;;;;25.83;51.01;101299.66;6243198;22;45294;-83
2023/08/22 22:14:22;;;;;;;;;2.75;2.75;;;;;25.91;51.01;101323.31;6243769;22;45306;-83
2023/08/22 22:16:50;;;;;;;;;7.25;3.25;;;;;25.83;51.29;101316.84;6216792;22;45339;-83
2023/08/22 22:19:15;;;;;;;;;2.80;2.80;;;;;25.67;51.48;101286.81;6243906;22;45395;-84
2023/08/22 22:21:41;;;;;;;;;3.50;2.25;;;;;25.80;51.17;101317.19;6243590;22;45283;-83
2023/08/22 22:24:06;;;;;;;;;2.25;2.25;;;;;25.72;51.30;101313.59;6243587;22;45409;-83
2023/08/22 22:26:31;;;;;;;;;1.00;1.00;;;;;25.65;51.36;101313.34;6244286;22;45160;-83
2023/08/22 22:28:57;;;;;;;;;4.00;3.00;;;;;25.61;51.50;101322.88;6243834;22;45303;-84
2023/08/22 22:31:22;;;;;;;;;2.00;2.00;;;;;25.57;51.75;101329.69;6243564;22;50126;-83
2023/08/22 22:33:47;;;;;;;;;2.25;2.25;;;;;25.54;51.90;101330.88;6217105;22;45225;-83
2023/08/22 22:36:13;;;;;;;;;1.75;1.75;;;;;25.48;51.52;101333.41;6244167;22;45577;-83
2023/08/22 22:38:38;;;;;;;;;2.00;2.00;;;;;25.46;51.53;101335.44;6243670;22;45283;-83
2023/08/22 22:41:05;;;;;;;;;1.00;1.00;;;;;25.33;52.12;101329.59;6242676;22;61970;-83
2023/08/22 22:43:31;;;;;;;;;2.00;2.00;;;;;25.07;51.94;101306.00;6243730;22;45346;-83
2023/08/22 22:45:57;;;;;;;;;2.00;2.00;;;;;25.25;52.13;101349.47;6244307;22;45327;-83
2023/08/22 22:48:22;;;;;;;;;2.00;2.00;;;;;25.16;51.85;101329.53;6243668;22;55727;-83
2023/08/22 22:50:48;;;;;;;;;2.00;2.00;;;;;25.04;52.16;101311.78;6243930;22;45236;-83
2023/08/22 22:53:14;;;;;;;;;2.25;1.25;;;;;25.03;52.02;101323.69;6243729;22;45733;-82
2023/08/22 22:55:39;;;;;;;;;1.25;1.25;;;;;25.03;52.09;101329.13;6243331;22;50637;-83
2023/08/22 22:58:04;;;;;;;;;5.50;3.00;;;;;25.02;51.99;101311.09;6242982;22;51510;-82
2023/08/22 23:00:30;;;;;;;;;2.50;2.00;;;;;24.96;52.20;101328.88;6243149;22;45200;-82
2023/08/22 23:02:57;;;;;;;;;2.00;2.00;;;;;24.85;52.06;101323.72;6243787;22;45252;-84
2023/08/22 23:05:22;;;;;;;;;3.00;1.50;;;;;24.81;52.28;101318.75;6243899;22;45454;-82
2023/08/22 23:07:48;;;;;;;;;1.75;1.75;;;;;24.74;52.28;101324.00;6233003;22;45228;-82
2023/08/22 23:10:14;;;;;;;;;2.25;2.25;;;;;24.78;52.36;101335.41;6212719;22;45169;-83
2023/08/22 23:12:39;;;;;;;;;2.25;2.25;;;;;24.69;52.25;101327.19;6212771;22;45333;-83
2023/08/22 23:15:05;;;;;;;;;4.00;4.00;;;;;24.71;52.04;101319.72;6213152;22;45360;-82
2023/08/22 23:17:38;;;;;;;;;3.00;2.00;;;;;24.73;52.29;101321.41;6211846;22;46134;-82
2023/08/22 23:20:07;;;;;;;;;2.00;2.00;;;;;24.70;52.45;101320.72;6212647;22;45130;-82
2023/08/22 23:22:34;;;;;;;;;2.75;2.75;;;;;24.68;52.14;101319.19;6212235;22;45373;-83
2023/08/22 23:25:00;;;;;;;;;2.00;2.00;;;;;24.65;52.13;101324.97;6212861;22;45609;-83
2023/08/22 23:27:25;;;;;;;;;3.00;2.75;;;;;24.45;51.86;101291.66;6212261;22;46088;-83
2023/08/22 23:29:51;;;;;;;;;2.00;2.00;;;;;24.56;52.15;101313.16;6213300;22;45886;-82
2023/08/22 23:32:17;;;;;;;;;3.00;2.00;;;;;24.50;52.15;101305.66;6186162;22;45238;-82
2023/08/22 23:34:43;;;;;;;;;1.00;1.00;;;;;24.54;52.14;101317.06;6213173;22;45433;-82
2023/08/22 23:37:09;;;;;;;;;2.00;2.00;;;;;24.40;52.40;101302.16;6212292;22;45401;-82
2023/08/22 23:39:35;;;;;;;;;2.00;2.00;;;;;24.46;52.13;101311.53;6212358;22;45243;-83
2023/08/22 23:42:00;;;;;;;;;3.00;3.00;;;;;24.51;52.33;101325.53;6212715;22;45419;-82
2023/08/22 23:44:25;;;;;;;;;1.50;1.50;;;;;24.47;52.17;101327.69;6213892;22;45533;-82
2023/08/22 23:46:50;;;;;;;;;1.00;1.00;;;;;24.34;52.26;101308.22;6185550;22;46976;-82
2023/08/22 23:49:16;;;;;;;;;2.00;2.00;;;;;24.38;52.60;101324.09;6187793;22;45364;-83
2023/08/22 23:51:41;;;;;;;;;1.50;1.50;;;;;24.36;52.44;101319.81;6214029;22;47337;-83
2023/08/22 23:54:07;;;;;;;;;2.00;2.00;;;;;24.28;51.95;101311.56;6186197;22;45317;-82
2023/08/22 23:56:32;;;;;;;;;2.00;2.00;;;;;24.20;52.03;101298.75;6211876;22;45861;-82
2023/08/22 23:58:57;;;;;;;;;1.00;1.00;;;;;24.24;52.26;101299.31;6213623;22;45346;-81
